createdAt,value
2017-07-26T00:00:03.276Z,0
2017-07-26T00:05:03.125Z,0
2017-07-26T00:10:02.492Z,0
2017-07-26T00:15:02.955Z,0
2017-07-26T00:20:02.638Z,0
2017-07-26T00:25:03.100Z,0
2017-07-26T00:30:02.597Z,0
2017-07-26T00:35:03.097Z,0
2017-07-26T00:40:02.517Z,0
2017-07-26T00:45:03.008Z,0
2017-07-26T00:50:02.427Z,0
2017-07-26T00:55:02.873Z,0
2017-07-26T01:00:02.361Z,0
2017-07-26T01:05:02.861Z,0
2017-07-26T01:10:02.386Z,0
2017-07-26T01:15:02.684Z,0
2017-07-26T01:20:03.058Z,0
2017-07-26T01:25:02.346Z,0
2017-07-26T01:30:02.729Z,0
2017-07-26T01:35:03.084Z,0
2017-07-26T01:40:02.470Z,0
2017-07-26T01:45:02.951Z,0
2017-07-26T01:50:02.325Z,0
2017-07-26T01:55:02.772Z,0
2017-07-26T02:00:03.306Z,0
2017-07-26T02:05:02.765Z,0
2017-07-26T02:10:02.386Z,0
2017-07-26T02:15:02.680Z,0
2017-07-26T02:20:02.975Z,0
2017-07-26T02:25:03.322Z,0
2017-07-26T02:30:02.860Z,0
2017-07-26T02:35:02.384Z,0
2017-07-26T02:40:02.921Z,0
2017-07-26T02:45:02.399Z,0
2017-07-26T02:50:02.957Z,0
2017-07-26T02:55:02.573Z,0
2017-07-26T03:00:03.135Z,0
2017-07-26T03:05:02.579Z,0
2017-07-26T03:10:02.936Z,1
2017-07-26T03:15:02.370Z,2
2017-07-26T03:20:02.883Z,4
2017-07-26T03:25:02.404Z,8
2017-07-26T03:30:02.745Z,16
2017-07-26T03:35:03.239Z,26
2017-07-26T03:40:02.733Z,38
2017-07-26T03:45:03.180Z,48
2017-07-26T03:50:02.660Z,58
2017-07-26T03:55:03.174Z,69
2017-07-26T04:00:02.449Z,91
2017-07-26T04:05:02.941Z,122
2017-07-26T04:10:02.435Z,253
2017-07-26T04:15:02.793Z,340
2017-07-26T04:20:03.114Z,450
2017-07-26T04:25:02.446Z,572
2017-07-26T04:30:02.613Z,691
2017-07-26T04:35:03.128Z,813
2017-07-26T04:40:02.413Z,938
2017-07-26T04:45:02.741Z,988
2017-07-26T04:50:03.063Z,1000
2017-07-26T04:55:02.369Z,1000
2017-07-26T05:00:03.009Z,1000
2017-07-26T05:05:02.489Z,1000
2017-07-26T05:10:02.792Z,1000
2017-07-26T05:15:03.311Z,1000
2017-07-26T05:20:02.824Z,1000
2017-07-26T05:25:03.122Z,1000
2017-07-26T05:30:02.446Z,2000
2017-07-26T05:35:02.972Z,2000
2017-07-26T05:40:02.493Z,3000
2017-07-26T05:45:02.843Z,3000
2017-07-26T05:50:03.272Z,3000
2017-07-26T05:55:02.533Z,3000
2017-07-26T06:00:02.908Z,5000
2017-07-26T06:05:03.170Z,5000
2017-07-26T06:10:02.550Z,5000
2017-07-26T06:15:03.075Z,4000
2017-07-26T06:20:02.562Z,5000
2017-07-26T06:25:03.035Z,6000
2017-07-26T06:30:02.499Z,5000
2017-07-26T06:35:02.994Z,4000
2017-07-26T06:40:02.580Z,5000
2017-07-26T06:45:02.898Z,5000
2017-07-26T06:50:02.402Z,5000
2017-07-26T06:55:02.930Z,6000
2017-07-26T07:00:03.208Z,5000
2017-07-26T07:05:02.898Z,5000
2017-07-26T07:10:02.495Z,6000
2017-07-26T07:15:02.977Z,8000
2017-07-26T07:20:02.458Z,7000
2017-07-26T07:25:02.885Z,9000
2017-07-26T07:30:03.192Z,9000
2017-07-26T07:35:02.641Z,6000
2017-07-26T07:40:03.001Z,6000
2017-07-26T07:45:02.489Z,6000
2017-07-26T07:50:03.024Z,6000
2017-07-26T07:55:02.371Z,8000
2017-07-26T08:00:02.745Z,13000
2017-07-26T08:05:03.268Z,14000
2017-07-26T08:10:02.752Z,6000
2017-07-26T08:15:03.188Z,6000
2017-07-26T08:20:02.451Z,8000
2017-07-26T08:25:02.730Z,40000
2017-07-26T08:30:03.278Z,48000
2017-07-26T08:35:02.752Z,50000
2017-07-26T08:40:03.106Z,6000
2017-07-26T08:45:02.424Z,54000
2017-07-26T08:50:02.959Z,28000
2017-07-26T08:55:03.272Z,55000
2017-07-26T09:00:02.759Z,57000
2017-07-26T09:05:03.048Z,54000
2017-07-26T09:10:02.373Z,54000
2017-07-26T09:15:02.922Z,50000
2017-07-26T09:20:02.463Z,53000
2017-07-26T09:25:02.849Z,55000
2017-07-26T09:30:03.183Z,59000
2017-07-26T09:35:02.471Z,58000
2017-07-26T09:40:02.995Z,56000
2017-07-26T09:45:02.511Z,10000
2017-07-26T09:50:02.813Z,14000
2017-07-26T09:55:03.285Z,56000
2017-07-26T10:00:02.558Z,10000
2017-07-26T10:05:02.951Z,18000
2017-07-26T10:10:02.530Z,20000
2017-07-26T10:15:02.826Z,56000
2017-07-26T10:20:03.183Z,52000
2017-07-26T10:25:02.554Z,53000
2017-07-26T10:30:03.080Z,52000
2017-07-26T10:35:02.429Z,53000
2017-07-26T10:40:03.024Z,58000
2017-07-26T10:45:02.521Z,11000
2017-07-26T10:50:02.957Z,60000
2017-07-26T10:55:03.229Z,64000
2017-07-26T11:00:02.579Z,12000
2017-07-26T11:05:03.035Z,8000
2017-07-26T11:10:02.450Z,34000
2017-07-26T11:15:02.762Z,10000
2017-07-26T11:20:02.395Z,12000
2017-07-26T11:25:02.696Z,14000
2017-07-26T11:30:03.038Z,15000
2017-07-26T11:35:02.439Z,43000
2017-07-26T11:40:02.967Z,37000
2017-07-26T11:45:03.276Z,25000
2017-07-26T11:50:02.723Z,21000
2017-07-26T11:55:03.083Z,18000
2017-07-26T12:00:02.413Z,19000
2017-07-26T12:05:02.747Z,25000
2017-07-26T12:10:03.119Z,28000
2017-07-26T12:15:02.525Z,21000
2017-07-26T12:20:03.080Z,27000
2017-07-26T12:25:02.577Z,19000
2017-07-26T12:30:03.169Z,48000
2017-07-26T12:35:02.597Z,42000
2017-07-26T12:40:03.090Z,19000
2017-07-26T12:45:02.532Z,11000
2017-07-26T12:50:03.144Z,21000
2017-07-26T12:55:02.598Z,13000
2017-07-26T13:00:02.957Z,13000
2017-07-26T13:05:02.558Z,14000
2017-07-26T13:10:02.958Z,13000
2017-07-26T13:15:03.295Z,30000
2017-07-26T13:20:02.788Z,45000
2017-07-26T13:25:03.276Z,24000
2017-07-26T13:30:02.578Z,50000
2017-07-26T13:35:03.037Z,28000
2017-07-26T13:40:02.624Z,25000
2017-07-26T13:45:03.093Z,47000
2017-07-26T13:50:02.429Z,12000
2017-07-26T13:55:02.998Z,13000
2017-07-26T14:00:02.503Z,13000
2017-07-26T14:05:02.809Z,35000
2017-07-26T14:10:02.415Z,13000
2017-07-26T14:15:02.807Z,9000
2017-07-26T14:20:03.294Z,28000
2017-07-26T14:25:02.543Z,12000
2017-07-26T14:30:02.843Z,32000
2017-07-26T14:35:03.127Z,32000
2017-07-26T14:40:02.622Z,31000
2017-07-26T14:45:03.120Z,26000
2017-07-26T14:50:02.595Z,28000
2017-07-26T14:55:03.003Z,27000
2017-07-26T15:00:03.310Z,29000
2017-07-26T15:05:02.617Z,8000
2017-07-26T15:10:03.192Z,7000
2017-07-26T15:15:02.507Z,17000
2017-07-26T15:20:03.009Z,19000
2017-07-26T15:25:02.342Z,4000
2017-07-26T15:30:02.666Z,6000
2017-07-26T15:35:03.213Z,23000
2017-07-26T15:40:02.713Z,21000
2017-07-26T15:45:03.237Z,21000
2017-07-26T15:50:02.474Z,20000
2017-07-26T15:55:02.973Z,19000
2017-07-26T16:00:02.431Z,17000
2017-07-26T16:05:02.900Z,12000
2017-07-26T16:10:02.506Z,3000
2017-07-26T16:15:02.826Z,15000
2017-07-26T16:20:03.297Z,6000
2017-07-26T16:25:02.775Z,10000
2017-07-26T16:30:03.086Z,6000
2017-07-26T16:35:02.555Z,4000
2017-07-26T16:40:03.033Z,3000
2017-07-26T16:45:02.613Z,4000
2017-07-26T16:50:03.183Z,5000
2017-07-26T16:55:02.660Z,5000
2017-07-26T17:00:03.065Z,5000
2017-07-26T17:05:02.596Z,5000
2017-07-26T17:10:03.017Z,5000
2017-07-26T17:15:02.448Z,5000
2017-07-26T17:20:02.795Z,5000
2017-07-26T17:25:03.278Z,4000
2017-07-26T17:30:02.536Z,4000
2017-07-26T17:35:02.960Z,3000
2017-07-26T17:40:03.339Z,2000
2017-07-26T17:45:02.750Z,2000
2017-07-26T17:50:03.227Z,2000
2017-07-26T17:55:02.652Z,1000
2017-07-26T18:00:03.122Z,1000
2017-07-26T18:05:02.385Z,1000
2017-07-26T18:10:02.936Z,2000
2017-07-26T18:15:02.360Z,3000
2017-07-26T18:20:02.833Z,2000
2017-07-26T18:25:03.108Z,3000
2017-07-26T18:30:02.440Z,3000
2017-07-26T18:35:02.888Z,3000
2017-07-26T18:40:02.431Z,2000
2017-07-26T18:45:02.925Z,1000
2017-07-26T18:50:03.218Z,1000
2017-07-26T18:55:02.540Z,865
2017-07-26T19:00:03.069Z,596
2017-07-26T19:05:02.541Z,465
2017-07-26T19:10:03.080Z,373
2017-07-26T19:15:02.608Z,238
2017-07-26T19:20:03.048Z,61
2017-07-26T19:25:02.543Z,50
2017-07-26T19:30:02.895Z,41
2017-07-26T19:35:03.217Z,26
2017-07-26T19:40:02.845Z,18
2017-07-26T19:45:02.474Z,10
2017-07-26T19:50:03.026Z,7
2017-07-26T19:55:02.562Z,6
2017-07-26T20:00:03.035Z,3
2017-07-26T20:05:02.474Z,1
2017-07-26T20:10:03.022Z,0
2017-07-26T20:15:03.334Z,0
2017-07-26T20:20:02.776Z,0
2017-07-26T20:25:03.110Z,0
2017-07-26T20:30:02.382Z,0
2017-07-26T20:35:02.998Z,0
2017-07-26T20:40:02.547Z,0
2017-07-26T20:45:02.908Z,0
2017-07-26T20:50:02.349Z,0
2017-07-26T20:55:02.893Z,0
2017-07-26T21:00:02.314Z,0
2017-07-26T21:05:02.680Z,0
2017-07-26T21:10:03.203Z,0
2017-07-26T21:15:02.555Z,0
2017-07-26T21:20:03.074Z,0
2017-07-26T21:25:02.476Z,0
2017-07-26T21:30:02.996Z,0
2017-07-26T21:35:03.305Z,0
2017-07-26T21:40:02.817Z,0
2017-07-26T21:45:03.136Z,0
2017-07-26T21:50:02.637Z,0
2017-07-26T21:55:02.970Z,0
2017-07-26T22:00:02.445Z,0
2017-07-26T22:05:02.826Z,0
2017-07-26T22:10:02.379Z,0
2017-07-26T22:15:02.756Z,0
2017-07-26T22:20:03.227Z,0
2017-07-26T22:25:02.468Z,0
2017-07-26T22:30:02.995Z,0
2017-07-26T22:35:02.529Z,0
2017-07-26T22:40:03.082Z,0
2017-07-26T22:45:02.383Z,0
2017-07-26T22:50:02.929Z,0
2017-07-26T22:55:02.387Z,0
2017-07-26T23:00:03.071Z,0
2017-07-26T23:05:03.091Z,0
2017-07-26T23:10:02.475Z,0
2017-07-26T23:15:02.931Z,0
2017-07-26T23:20:03.225Z,0
2017-07-26T23:25:02.501Z,0
2017-07-26T23:30:02.859Z,0
2017-07-26T23:35:03.140Z,0
2017-07-26T23:40:02.673Z,0
2017-07-26T23:45:03.177Z,0
2017-07-26T23:50:02.631Z,0
2017-07-26T23:55:03.134Z,0
